sensor_id;sensor_type;location;lat;lon;timestamp;temperature;humidity
44229;DHT22;29904;51.058;5.378;2023-09-08T00:01:57;19.30;99.90
44229;DHT22;29904;51.058;5.378;2023-09-08T00:04:23;19.20;99.90
44229;DHT22;29904;51.058;5.378;2023-09-08T00:06:49;19.20;99.90
44229;DHT22;29904;51.058;5.378;2023-09-08T00:09:15;19.20;99.90
44229;DHT22;29904;51.058;5.378;2023-09-08T00:11:40;19.10;99.90
44229;DHT22;29904;51.058;5.378;2023-09-08T00:14:08;19.10;99.90
44229;DHT22;29904;51.058;5.378;2023-09-08T00:16:34;19.10;99.90
44229;DHT22;29904;51.058;5.378;2023-09-08T00:19:00;19.10;99.90
44229;DHT22;29904;51.058;5.378;2023-09-08T00:21:26;19.00;99.90
44229;DHT22;29904;51.058;5.378;2023-09-08T00:23:52;19.00;99.90
44229;DHT22;29904;51.058;5.378;2023-09-08T00:26:18;19.00;99.90
44229;DHT22;29904;51.058;5.378;2023-09-08T00:28:44;19.00;99.90
44229;DHT22;29904;51.058;5.378;2023-09-08T00:31:10;18.90;99.90
44229;DHT22;29904;51.058;5.378;2023-09-08T00:33:36;18.90;99.90
44229;DHT22;29904;51.058;5.378;2023-09-08T00:36:03;18.90;99.90
44229;DHT22;29904;51.058;5.378;2023-09-08T00:38:29;18.90;99.90
44229;DHT22;29904;51.058;5.378;2023-09-08T00:40:55;18.90;99.90
44229;DHT22;29904;51.058;5.378;2023-09-08T00:43:21;18.80;99.90
44229;DHT22;29904;51.058;5.378;2023-09-08T00:45:46;18.80;99.90
44229;DHT22;29904;51.058;5.378;2023-09-08T00:48:13;18.80;99.90
44229;DHT22;29904;51.058;5.378;2023-09-08T00:50:39;18.70;99.90
44229;DHT22;29904;51.058;5.378;2023-09-08T00:53:07;18.70;99.90
44229;DHT22;29904;51.058;5.378;2023-09-08T00:55:34;18.70;99.90
44229;DHT22;29904;51.058;5.378;2023-09-08T00:58:01;18.60;99.90
44229;DHT22;29904;51.058;5.378;2023-09-08T01:00:27;18.50;99.90
44229;DHT22;29904;51.058;5.378;2023-09-08T01:02:53;18.50;99.90
44229;DHT22;29904;51.058;5.378;2023-09-08T01:05:19;18.50;99.90
44229;DHT22;29904;51.058;5.378;2023-09-08T01:07:48;18.50;99.90
44229;DHT22;29904;51.058;5.378;2023-09-08T01:10:14;18.50;99.90
44229;DHT22;29904;51.058;5.378;2023-09-08T01:12:41;18.50;99.90
44229;DHT22;29904;51.058;5.378;2023-09-08T01:15:07;18.50;99.90
44229;DHT22;29904;51.058;5.378;2023-09-08T01:17:33;18.40;99.90
44229;DHT22;29904;51.058;5.378;2023-09-08T01:20:06;18.40;99.90
44229;DHT22;29904;51.058;5.378;2023-09-08T01:22:45;18.30;99.90
44229;DHT22;29904;51.058;5.378;2023-09-08T01:25:18;18.30;99.90
44229;DHT22;29904;51.058;5.378;2023-09-08T01:27:54;18.30;99.90
44229;DHT22;29904;51.058;5.378;2023-09-08T01:30:24;18.90;99.90
44229;DHT22;29904;51.058;5.378;2023-09-08T01:32:53;18.20;99.90
44229;DHT22;29904;51.058;5.378;2023-09-08T01:35:19;18.20;99.90
44229;DHT22;29904;51.058;5.378;2023-09-08T01:37:46;18.20;99.90
44229;DHT22;29904;51.058;5.378;2023-09-08T01:40:13;18.20;99.90
44229;DHT22;29904;51.058;5.378;2023-09-08T01:42:41;18.20;99.90
44229;DHT22;29904;51.058;5.378;2023-09-08T01:45:07;18.20;99.90
44229;DHT22;29904;51.058;5.378;2023-09-08T01:47:34;18.10;99.90
44229;DHT22;29904;51.058;5.378;2023-09-08T01:50:00;18.10;99.90
44229;DHT22;29904;51.058;5.378;2023-09-08T01:52:27;18.10;99.90
44229;DHT22;29904;51.058;5.378;2023-09-08T01:54:52;18.10;99.90
44229;DHT22;29904;51.058;5.378;2023-09-08T01:57:18;18.10;99.90
44229;DHT22;29904;51.058;5.378;2023-09-08T01:59:44;18.10;99.90
44229;DHT22;29904;51.058;5.378;2023-09-08T02:02:13;18.10;99.90
44229;DHT22;29904;51.058;5.378;2023-09-08T02:04:39;18.10;99.90
44229;DHT22;29904;51.058;5.378;2023-09-08T02:07:05;18.10;99.90
44229;DHT22;29904;51.058;5.378;2023-09-08T02:09:35;18.00;99.90
44229;DHT22;29904;51.058;5.378;2023-09-08T02:12:04;18.00;99.90
44229;DHT22;29904;51.058;5.378;2023-09-08T02:14:30;18.00;99.90
44229;DHT22;29904;51.058;5.378;2023-09-08T02:16:56;17.90;99.90
44229;DHT22;29904;51.058;5.378;2023-09-08T02:19:24;18.00;99.90
44229;DHT22;29904;51.058;5.378;2023-09-08T02:21:50;18.00;99.90
44229;DHT22;29904;51.058;5.378;2023-09-08T02:24:15;18.00;99.90
44229;DHT22;29904;51.058;5.378;2023-09-08T02:26:41;18.00;99.90
44229;DHT22;29904;51.058;5.378;2023-09-08T02:29:07;18.00;99.90
44229;DHT22;29904;51.058;5.378;2023-09-08T02:31:35;18.00;99.90
44229;DHT22;29904;51.058;5.378;2023-09-08T02:34:02;17.90;99.90
44229;DHT22;29904;51.058;5.378;2023-09-08T02:36:28;17.90;99.90
44229;DHT22;29904;51.058;5.378;2023-09-08T02:38:55;17.80;99.90
44229;DHT22;29904;51.058;5.378;2023-09-08T02:41:23;17.80;99.90
44229;DHT22;29904;51.058;5.378;2023-09-08T02:43:49;17.80;99.90
44229;DHT22;29904;51.058;5.378;2023-09-08T02:46:15;17.70;99.90
44229;DHT22;29904;51.058;5.378;2023-09-08T02:48:41;17.70;99.90
44229;DHT22;29904;51.058;5.378;2023-09-08T02:51:07;17.70;99.90
44229;DHT22;29904;51.058;5.378;2023-09-08T02:53:33;17.70;99.90
44229;DHT22;29904;51.058;5.378;2023-09-08T02:56:01;17.70;99.90
44229;DHT22;29904;51.058;5.378;2023-09-08T02:58:28;17.70;99.90
44229;DHT22;29904;51.058;5.378;2023-09-08T03:00:55;17.70;99.90
44229;DHT22;29904;51.058;5.378;2023-09-08T03:03:22;17.70;99.90
44229;DHT22;29904;51.058;5.378;2023-09-08T03:05:48;17.60;99.90
44229;DHT22;29904;51.058;5.378;2023-09-08T03:08:13;17.60;99.90
44229;DHT22;29904;51.058;5.378;2023-09-08T03:10:40;17.60;99.90
44229;DHT22;29904;51.058;5.378;2023-09-08T03:13:06;17.60;99.90
44229;DHT22;29904;51.058;5.378;2023-09-08T03:15:31;17.60;99.90
44229;DHT22;29904;51.058;5.378;2023-09-08T03:17:58;17.60;99.90
44229;DHT22;29904;51.058;5.378;2023-09-08T03:20:25;17.60;99.90
44229;DHT22;29904;51.058;5.378;2023-09-08T03:22:54;17.60;99.90
44229;DHT22;29904;51.058;5.378;2023-09-08T03:25:20;17.60;99.90
44229;DHT22;29904;51.058;5.378;2023-09-08T03:27:46;17.60;99.90
44229;DHT22;29904;51.058;5.378;2023-09-08T03:30:12;17.60;99.90
44229;DHT22;29904;51.058;5.378;2023-09-08T03:32:40;17.60;99.90
44229;DHT22;29904;51.058;5.378;2023-09-08T03:35:07;17.50;99.90
44229;DHT22;29904;51.058;5.378;2023-09-08T03:37:34;17.50;99.90
44229;DHT22;29904;51.058;5.378;2023-09-08T03:40:00;17.50;99.90
44229;DHT22;29904;51.058;5.378;2023-09-08T03:42:26;17.60;99.90
44229;DHT22;29904;51.058;5.378;2023-09-08T03:44:54;17.60;99.90
44229;DHT22;29904;51.058;5.378;2023-09-08T03:47:19;17.60;99.90
44229;DHT22;29904;51.058;5.378;2023-09-08T03:49:45;17.60;99.90
44229;DHT22;29904;51.058;5.378;2023-09-08T03:52:13;17.60;99.90
44229;DHT22;29904;51.058;5.378;2023-09-08T03:54:38;17.50;99.90
44229;DHT22;29904;51.058;5.378;2023-09-08T03:57:04;17.50;99.90
44229;DHT22;29904;51.058;5.378;2023-09-08T03:59:32;17.50;99.90
44229;DHT22;29904;51.058;5.378;2023-09-08T04:01:59;17.50;99.90
44229;DHT22;29904;51.058;5.378;2023-09-08T04:04:26;17.50;99.90
44229;DHT22;29904;51.058;5.378;2023-09-08T04:06:54;17.50;99.90
44229;DHT22;29904;51.058;5.378;2023-09-08T04:09:19;17.50;99.90
44229;DHT22;29904;51.058;5.378;2023-09-08T04:11:45;17.50;99.90
44229;DHT22;29904;51.058;5.378;2023-09-08T04:14:13;17.50;99.90
44229;DHT22;29904;51.058;5.378;2023-09-08T04:16:39;17.50;99.90
44229;DHT22;29904;51.058;5.378;2023-09-08T04:19:05;17.40;99.90
44229;DHT22;29904;51.058;5.378;2023-09-08T04:21:32;17.40;99.90
44229;DHT22;29904;51.058;5.378;2023-09-08T04:23:58;17.40;99.90
44229;DHT22;29904;51.058;5.378;2023-09-08T04:26:24;17.40;99.90
44229;DHT22;29904;51.058;5.378;2023-09-08T04:28:50;17.40;99.90
44229;DHT22;29904;51.058;5.378;2023-09-08T04:31:16;17.40;99.90
44229;DHT22;29904;51.058;5.378;2023-09-08T04:33:43;17.40;99.90
44229;DHT22;29904;51.058;5.378;2023-09-08T04:36:09;17.40;99.90
44229;DHT22;29904;51.058;5.378;2023-09-08T04:38:36;17.40;99.90
44229;DHT22;29904;51.058;5.378;2023-09-08T04:41:02;17.40;99.90
44229;DHT22;29904;51.058;5.378;2023-09-08T04:43:28;17.40;99.90
44229;DHT22;29904;51.058;5.378;2023-09-08T04:45:53;17.30;99.90
44229;DHT22;29904;51.058;5.378;2023-09-08T04:48:19;17.20;99.90
44229;DHT22;29904;51.058;5.378;2023-09-08T04:50:45;17.30;99.90
44229;DHT22;29904;51.058;5.378;2023-09-08T04:53:10;17.30;99.90
44229;DHT22;29904;51.058;5.378;2023-09-08T04:55:36;17.30;99.90
44229;DHT22;29904;51.058;5.378;2023-09-08T04:58:04;17.30;99.90
44229;DHT22;29904;51.058;5.378;2023-09-08T05:00:31;17.30;99.90
44229;DHT22;29904;51.058;5.378;2023-09-08T05:03:01;17.30;99.90
44229;DHT22;29904;51.058;5.378;2023-09-08T05:05:27;17.40;99.90
44229;DHT22;29904;51.058;5.378;2023-09-08T05:07:53;17.40;99.90
44229;DHT22;29904;51.058;5.378;2023-09-08T05:10:25;17.40;99.90
44229;DHT22;29904;51.058;5.378;2023-09-08T05:12:51;17.40;99.90
44229;DHT22;29904;51.058;5.378;2023-09-08T05:15:17;17.40;99.90
44229;DHT22;29904;51.058;5.378;2023-09-08T05:17:46;17.40;99.90
44229;DHT22;29904;51.058;5.378;2023-09-08T05:20:12;17.40;99.90
44229;DHT22;29904;51.058;5.378;2023-09-08T05:22:37;17.40;99.90
44229;DHT22;29904;51.058;5.378;2023-09-08T05:25:05;17.40;99.90
44229;DHT22;29904;51.058;5.378;2023-09-08T05:27:31;17.40;99.90
44229;DHT22;29904;51.058;5.378;2023-09-08T05:29:57;17.40;99.90
44229;DHT22;29904;51.058;5.378;2023-09-08T05:32:24;17.50;99.90
44229;DHT22;29904;51.058;5.378;2023-09-08T05:34:52;17.60;99.90
44229;DHT22;29904;51.058;5.378;2023-09-08T05:37:17;17.60;99.90
44229;DHT22;29904;51.058;5.378;2023-09-08T05:39:43;17.60;99.90
44229;DHT22;29904;51.058;5.378;2023-09-08T05:42:09;17.60;99.90
44229;DHT22;29904;51.058;5.378;2023-09-08T05:44:34;17.60;99.90
44229;DHT22;29904;51.058;5.378;2023-09-08T05:47:02;17.60;99.90
44229;DHT22;29904;51.058;5.378;2023-09-08T05:49:28;17.70;99.90
44229;DHT22;29904;51.058;5.378;2023-09-08T05:51:54;17.90;99.90
44229;DHT22;29904;51.058;5.378;2023-09-08T05:54:19;18.10;99.90
44229;DHT22;29904;51.058;5.378;2023-09-08T05:56:45;18.20;99.90
44229;DHT22;29904;51.058;5.378;2023-09-08T05:59:11;18.20;99.90
44229;DHT22;29904;51.058;5.378;2023-09-08T06:01:37;18.20;99.90
44229;DHT22;29904;51.058;5.378;2023-09-08T06:04:03;18.30;99.90
44229;DHT22;29904;51.058;5.378;2023-09-08T06:06:29;18.40;99.90
44229;DHT22;29904;51.058;5.378;2023-09-08T06:08:56;18.50;99.90
44229;DHT22;29904;51.058;5.378;2023-09-08T06:11:26;18.50;99.90
44229;DHT22;29904;51.058;5.378;2023-09-08T06:13:51;18.60;99.90
44229;DHT22;29904;51.058;5.378;2023-09-08T06:16:20;18.70;99.90
44229;DHT22;29904;51.058;5.378;2023-09-08T06:18:46;19.10;99.90
44229;DHT22;29904;51.058;5.378;2023-09-08T06:21:11;19.20;99.90
44229;DHT22;29904;51.058;5.378;2023-09-08T06:23:37;19.20;99.90
44229;DHT22;29904;51.058;5.378;2023-09-08T06:26:03;19.20;99.90
44229;DHT22;29904;51.058;5.378;2023-09-08T06:28:29;19.50;99.90
44229;DHT22;29904;51.058;5.378;2023-09-08T06:30:54;19.90;99.90
44229;DHT22;29904;51.058;5.378;2023-09-08T06:33:20;20.10;99.90
44229;DHT22;29904;51.058;5.378;2023-09-08T06:35:47;20.10;99.90
44229;DHT22;29904;51.058;5.378;2023-09-08T06:38:13;20.10;99.90
44229;DHT22;29904;51.058;5.378;2023-09-08T06:40:41;20.10;99.90
44229;DHT22;29904;51.058;5.378;2023-09-08T06:43:07;20.10;99.90
44229;DHT22;29904;51.058;5.378;2023-09-08T06:45:32;20.10;99.90
44229;DHT22;29904;51.058;5.378;2023-09-08T06:48:00;20.20;99.90
44229;DHT22;29904;51.058;5.378;2023-09-08T06:50:26;20.30;99.90
44229;DHT22;29904;51.058;5.378;2023-09-08T06:52:52;20.40;99.90
44229;DHT22;29904;51.058;5.378;2023-09-08T06:55:20;20.40;99.90
44229;DHT22;29904;51.058;5.378;2023-09-08T06:57:46;20.40;99.90
44229;DHT22;29904;51.058;5.378;2023-09-08T07:00:13;20.40;99.90
44229;DHT22;29904;51.058;5.378;2023-09-08T07:02:41;20.50;99.90
44229;DHT22;29904;51.058;5.378;2023-09-08T07:05:07;20.60;99.90
44229;DHT22;29904;51.058;5.378;2023-09-08T07:07:37;20.70;99.90
44229;DHT22;29904;51.058;5.378;2023-09-08T07:10:04;20.70;99.90
44229;DHT22;29904;51.058;5.378;2023-09-08T07:12:32;20.80;99.90
44229;DHT22;29904;51.058;5.378;2023-09-08T07:14:58;20.90;99.90
44229;DHT22;29904;51.058;5.378;2023-09-08T07:17:25;21.00;99.90
44229;DHT22;29904;51.058;5.378;2023-09-08T07:19:51;21.10;99.90
44229;DHT22;29904;51.058;5.378;2023-09-08T07:22:17;21.20;99.90
44229;DHT22;29904;51.058;5.378;2023-09-08T07:24:43;21.30;99.90
44229;DHT22;29904;51.058;5.378;2023-09-08T07:27:11;21.30;99.90
44229;DHT22;29904;51.058;5.378;2023-09-08T07:29:40;21.30;99.90
44229;DHT22;29904;51.058;5.378;2023-09-08T07:32:06;21.40;99.90
44229;DHT22;29904;51.058;5.378;2023-09-08T07:34:32;21.50;99.90
44229;DHT22;29904;51.058;5.378;2023-09-08T07:37:00;21.60;99.90
44229;DHT22;29904;51.058;5.378;2023-09-08T07:39:25;21.60;99.90
44229;DHT22;29904;51.058;5.378;2023-09-08T07:41:51;21.70;99.90
44229;DHT22;29904;51.058;5.378;2023-09-08T07:44:17;21.80;99.90
44229;DHT22;29904;51.058;5.378;2023-09-08T07:46:43;21.90;99.90
44229;DHT22;29904;51.058;5.378;2023-09-08T07:49:13;21.90;99.90
44229;DHT22;29904;51.058;5.378;2023-09-08T07:51:40;22.00;99.90
44229;DHT22;29904;51.058;5.378;2023-09-08T07:54:05;22.10;99.90
44229;DHT22;29904;51.058;5.378;2023-09-08T07:56:34;22.20;99.90
44229;DHT22;29904;51.058;5.378;2023-09-08T07:58:59;22.30;99.90
44229;DHT22;29904;51.058;5.378;2023-09-08T08:01:25;22.40;99.90
44229;DHT22;29904;51.058;5.378;2023-09-08T08:03:53;22.50;99.90
44229;DHT22;29904;51.058;5.378;2023-09-08T08:06:18;22.60;99.90
44229;DHT22;29904;51.058;5.378;2023-09-08T08:08:44;22.70;99.90
44229;DHT22;29904;51.058;5.378;2023-09-08T08:11:15;22.70;99.90
44229;DHT22;29904;51.058;5.378;2023-09-08T08:13:41;22.80;99.90
44229;DHT22;29904;51.058;5.378;2023-09-08T08:16:07;22.90;99.90
44229;DHT22;29904;51.058;5.378;2023-09-08T08:18:34;22.90;99.90
44229;DHT22;29904;51.058;5.378;2023-09-08T08:21:00;23.00;99.90
44229;DHT22;29904;51.058;5.378;2023-09-08T08:23:28;23.10;99.90
44229;DHT22;29904;51.058;5.378;2023-09-08T08:25:55;23.20;99.90
44229;DHT22;29904;51.058;5.378;2023-09-08T08:28:20;23.30;99.90
44229;DHT22;29904;51.058;5.378;2023-09-08T08:30:46;23.30;99.90
44229;DHT22;29904;51.058;5.378;2023-09-08T08:33:13;23.40;99.90
44229;DHT22;29904;51.058;5.378;2023-09-08T08:35:39;23.50;99.90
44229;DHT22;29904;51.058;5.378;2023-09-08T08:38:08;23.70;99.90
44229;DHT22;29904;51.058;5.378;2023-09-08T08:40:38;23.80;99.90
44229;DHT22;29904;51.058;5.378;2023-09-08T08:43:04;23.90;99.90
44229;DHT22;29904;51.058;5.378;2023-09-08T08:45:32;23.90;99.90
44229;DHT22;29904;51.058;5.378;2023-09-08T08:47:58;24.00;99.90
44229;DHT22;29904;51.058;5.378;2023-09-08T08:50:24;24.00;99.90
44229;DHT22;29904;51.058;5.378;2023-09-08T08:52:50;24.20;99.90
44229;DHT22;29904;51.058;5.378;2023-09-08T08:55:16;24.20;99.90
44229;DHT22;29904;51.058;5.378;2023-09-08T08:57:43;24.30;99.90
44229;DHT22;29904;51.058;5.378;2023-09-08T09:00:11;24.30;99.90
44229;DHT22;29904;51.058;5.378;2023-09-08T09:02:42;24.40;99.90
44229;DHT22;29904;51.058;5.378;2023-09-08T09:05:12;24.60;99.90
44229;DHT22;29904;51.058;5.378;2023-09-08T09:07:42;24.60;99.90
44229;DHT22;29904;51.058;5.378;2023-09-08T09:10:09;24.60;99.90
44229;DHT22;29904;51.058;5.378;2023-09-08T09:12:37;24.80;99.90
44229;DHT22;29904;51.058;5.378;2023-09-08T09:15:06;24.90;99.90
44229;DHT22;29904;51.058;5.378;2023-09-08T09:17:34;25.00;99.90
44229;DHT22;29904;51.058;5.378;2023-09-08T09:20:16;25.10;99.90
44229;DHT22;29904;51.058;5.378;2023-09-08T09:22:44;25.20;99.90
44229;DHT22;29904;51.058;5.378;2023-09-08T09:25:20;25.30;99.90
44229;DHT22;29904;51.058;5.378;2023-09-08T09:27:51;25.30;99.90
44229;DHT22;29904;51.058;5.378;2023-09-08T09:30:17;25.50;99.90
44229;DHT22;29904;51.058;5.378;2023-09-08T09:32:44;25.60;99.90
44229;DHT22;29904;51.058;5.378;2023-09-08T09:35:10;25.70;99.90
44229;DHT22;29904;51.058;5.378;2023-09-08T09:37:35;25.90;99.90
44229;DHT22;29904;51.058;5.378;2023-09-08T09:40:03;25.90;99.90
44229;DHT22;29904;51.058;5.378;2023-09-08T09:42:34;26.10;99.90
44229;DHT22;29904;51.058;5.378;2023-09-08T09:45:03;26.20;99.90
44229;DHT22;29904;51.058;5.378;2023-09-08T09:47:29;26.30;99.90
44229;DHT22;29904;51.058;5.378;2023-09-08T09:49:56;26.40;99.90
44229;DHT22;29904;51.058;5.378;2023-09-08T09:52:24;26.50;99.90
44229;DHT22;29904;51.058;5.378;2023-09-08T09:54:53;26.60;99.90
44229;DHT22;29904;51.058;5.378;2023-09-08T09:57:21;26.70;99.90
44229;DHT22;29904;51.058;5.378;2023-09-08T09:59:47;26.90;99.90
44229;DHT22;29904;51.058;5.378;2023-09-08T10:02:18;27.00;99.90
44229;DHT22;29904;51.058;5.378;2023-09-08T10:04:48;27.20;99.90
44229;DHT22;29904;51.058;5.378;2023-09-08T10:07:17;27.30;99.90
44229;DHT22;29904;51.058;5.378;2023-09-08T10:09:43;27.40;99.90
44229;DHT22;29904;51.058;5.378;2023-09-08T10:12:10;27.40;99.90
44229;DHT22;29904;51.058;5.378;2023-09-08T10:14:41;27.50;99.90
44229;DHT22;29904;51.058;5.378;2023-09-08T10:17:20;27.70;99.90
44229;DHT22;29904;51.058;5.378;2023-09-08T10:19:50;27.90;99.90
44229;DHT22;29904;51.058;5.378;2023-09-08T10:22:20;28.10;99.90
44229;DHT22;29904;51.058;5.378;2023-09-08T10:24:49;28.10;99.90
44229;DHT22;29904;51.058;5.378;2023-09-08T10:27:15;28.20;99.90
44229;DHT22;29904;51.058;5.378;2023-09-08T10:29:46;28.40;99.90
44229;DHT22;29904;51.058;5.378;2023-09-08T10:32:13;28.60;99.90
44229;DHT22;29904;51.058;5.378;2023-09-08T10:34:41;28.70;99.90
44229;DHT22;29904;51.058;5.378;2023-09-08T10:37:24;28.80;99.90
44229;DHT22;29904;51.058;5.378;2023-09-08T10:39:51;28.90;99.90
44229;DHT22;29904;51.058;5.378;2023-09-08T10:47:13;29.30;99.90
44229;DHT22;29904;51.058;5.378;2023-09-08T10:49:40;29.40;99.90
44229;DHT22;29904;51.058;5.378;2023-09-08T10:52:11;29.40;99.90
44229;DHT22;29904;51.058;5.378;2023-09-08T10:54:44;29.30;99.90
44229;DHT22;29904;51.058;5.378;2023-09-08T10:57:22;29.50;99.90
44229;DHT22;29904;51.058;5.378;2023-09-08T10:59:57;29.80;99.90
44229;DHT22;29904;51.058;5.378;2023-09-08T11:02:38;30.00;99.90
44229;DHT22;29904;51.058;5.378;2023-09-08T11:05:09;30.10;99.90
44229;DHT22;29904;51.058;5.378;2023-09-08T11:07:38;30.10;99.90
44229;DHT22;29904;51.058;5.378;2023-09-08T11:10:05;30.10;99.90
44229;DHT22;29904;51.058;5.378;2023-09-08T11:12:33;30.30;99.90
44229;DHT22;29904;51.058;5.378;2023-09-08T11:15:03;30.40;99.90
44229;DHT22;29904;51.058;5.378;2023-09-08T11:17:31;30.40;99.90
44229;DHT22;29904;51.058;5.378;2023-09-08T11:20:00;30.50;99.90
44229;DHT22;29904;51.058;5.378;2023-09-08T11:22:26;30.70;99.90
44229;DHT22;29904;51.058;5.378;2023-09-08T11:25:02;30.90;99.90
44229;DHT22;29904;51.058;5.378;2023-09-08T11:27:30;31.00;99.90
44229;DHT22;29904;51.058;5.378;2023-09-08T11:29:57;30.90;99.90
44229;DHT22;29904;51.058;5.378;2023-09-08T11:32:23;30.90;99.90
44229;DHT22;29904;51.058;5.378;2023-09-08T11:34:49;30.80;99.90
44229;DHT22;29904;51.058;5.378;2023-09-08T11:37:17;31.00;99.90
44229;DHT22;29904;51.058;5.378;2023-09-08T11:39:44;31.10;99.90
44229;DHT22;29904;51.058;5.378;2023-09-08T11:42:14;31.10;99.90
44229;DHT22;29904;51.058;5.378;2023-09-08T11:44:41;31.10;99.90
44229;DHT22;29904;51.058;5.378;2023-09-08T11:47:08;31.20;99.90
44229;DHT22;29904;51.058;5.378;2023-09-08T11:49:41;31.10;99.90
44229;DHT22;29904;51.058;5.378;2023-09-08T11:52:09;31.20;99.90
44229;DHT22;29904;51.058;5.378;2023-09-08T11:54:36;31.40;99.90
44229;DHT22;29904;51.058;5.378;2023-09-08T11:57:04;31.50;99.90
44229;DHT22;29904;51.058;5.378;2023-09-08T11:59:32;31.50;99.90
44229;DHT22;29904;51.058;5.378;2023-09-08T12:01:59;31.50;99.90
44229;DHT22;29904;51.058;5.378;2023-09-08T12:04:25;31.60;99.90
44229;DHT22;29904;51.058;5.378;2023-09-08T12:06:54;31.70;99.90
44229;DHT22;29904;51.058;5.378;2023-09-08T12:09:25;31.80;99.90
44229;DHT22;29904;51.058;5.378;2023-09-08T12:11:51;31.80;99.90
44229;DHT22;29904;51.058;5.378;2023-09-08T12:14:17;31.70;99.90
44229;DHT22;29904;51.058;5.378;2023-09-08T12:16:44;31.80;99.90
44229;DHT22;29904;51.058;5.378;2023-09-08T12:19:30;31.90;99.90
44229;DHT22;29904;51.058;5.378;2023-09-08T12:22:03;32.00;99.90
44229;DHT22;29904;51.058;5.378;2023-09-08T12:25:07;32.10;99.90
44229;DHT22;29904;51.058;5.378;2023-09-08T12:27:36;32.30;99.90
44229;DHT22;29904;51.058;5.378;2023-09-08T12:30:03;32.40;99.90
44229;DHT22;29904;51.058;5.378;2023-09-08T12:32:31;32.50;99.90
44229;DHT22;29904;51.058;5.378;2023-09-08T12:34:58;32.50;99.90
44229;DHT22;29904;51.058;5.378;2023-09-08T12:37:25;32.60;99.90
44229;DHT22;29904;51.058;5.378;2023-09-08T12:39:53;32.40;99.90
44229;DHT22;29904;51.058;5.378;2023-09-08T12:42:21;32.00;99.90
44229;DHT22;29904;51.058;5.378;2023-09-08T12:44:51;31.70;99.90
44229;DHT22;29904;51.058;5.378;2023-09-08T12:47:17;31.60;99.90
44229;DHT22;29904;51.058;5.378;2023-09-08T12:49:45;31.70;99.90
44229;DHT22;29904;51.058;5.378;2023-09-08T12:52:13;31.80;99.90
44229;DHT22;29904;51.058;5.378;2023-09-08T12:54:38;31.90;99.90
44229;DHT22;29904;51.058;5.378;2023-09-08T12:57:06;32.10;99.90
44229;DHT22;29904;51.058;5.378;2023-09-08T12:59:32;32.00;99.90
44229;DHT22;29904;51.058;5.378;2023-09-08T13:01:58;31.90;99.90
44229;DHT22;29904;51.058;5.378;2023-09-08T13:04:24;32.10;99.90
44229;DHT22;29904;51.058;5.378;2023-09-08T13:06:50;32.10;99.90
44229;DHT22;29904;51.058;5.378;2023-09-08T13:09:16;32.10;99.90
44229;DHT22;29904;51.058;5.378;2023-09-08T13:11:42;32.10;99.90
44229;DHT22;29904;51.058;5.378;2023-09-08T13:14:08;32.20;99.90
44229;DHT22;29904;51.058;5.378;2023-09-08T13:16:34;32.30;99.90
44229;DHT22;29904;51.058;5.378;2023-09-08T13:19:00;32.30;99.90
44229;DHT22;29904;51.058;5.378;2023-09-08T13:21:26;32.20;99.90
44229;DHT22;29904;51.058;5.378;2023-09-08T13:23:51;32.20;99.90
44229;DHT22;29904;51.058;5.378;2023-09-08T13:26:17;32.30;99.90
44229;DHT22;29904;51.058;5.378;2023-09-08T13:28:43;32.30;99.90
44229;DHT22;29904;51.058;5.378;2023-09-08T13:31:10;32.50;99.90
44229;DHT22;29904;51.058;5.378;2023-09-08T13:33:36;32.70;99.90
44229;DHT22;29904;51.058;5.378;2023-09-08T13:36:02;32.80;99.90
44229;DHT22;29904;51.058;5.378;2023-09-08T13:38:29;32.90;99.90
44229;DHT22;29904;51.058;5.378;2023-09-08T13:40:57;33.00;99.90
44229;DHT22;29904;51.058;5.378;2023-09-08T13:43:22;33.00;99.90
44229;DHT22;29904;51.058;5.378;2023-09-08T13:45:48;33.00;99.90
44229;DHT22;29904;51.058;5.378;2023-09-08T13:48:16;33.00;99.90
44229;DHT22;29904;51.058;5.378;2023-09-08T13:50:41;33.00;99.90
44229;DHT22;29904;51.058;5.378;2023-09-08T13:53:07;33.10;99.90
44229;DHT22;29904;51.058;5.378;2023-09-08T13:55:33;33.10;99.90
44229;DHT22;29904;51.058;5.378;2023-09-08T13:57:59;33.10;99.90
44229;DHT22;29904;51.058;5.378;2023-09-08T14:00:24;33.00;99.90
44229;DHT22;29904;51.058;5.378;2023-09-08T14:02:50;32.90;99.90
44229;DHT22;29904;51.058;5.378;2023-09-08T14:05:16;32.90;99.90
44229;DHT22;29904;51.058;5.378;2023-09-08T14:07:42;32.90;99.90
44229;DHT22;29904;51.058;5.378;2023-09-08T14:10:09;32.80;99.90
44229;DHT22;29904;51.058;5.378;2023-09-08T14:12:35;32.80;99.90
44229;DHT22;29904;51.058;5.378;2023-09-08T14:15:01;32.90;99.90
44229;DHT22;29904;51.058;5.378;2023-09-08T14:17:29;32.90;99.90
44229;DHT22;29904;51.058;5.378;2023-09-08T14:19:55;32.80;99.90
44229;DHT22;29904;51.058;5.378;2023-09-08T14:22:21;32.60;99.90
44229;DHT22;29904;51.058;5.378;2023-09-08T14:24:46;32.60;99.90
44229;DHT22;29904;51.058;5.378;2023-09-08T14:27:12;32.70;99.90
44229;DHT22;29904;51.058;5.378;2023-09-08T14:29:38;32.70;99.90
44229;DHT22;29904;51.058;5.378;2023-09-08T14:32:04;32.70;99.90
44229;DHT22;29904;51.058;5.378;2023-09-08T14:34:32;32.70;99.90
44229;DHT22;29904;51.058;5.378;2023-09-08T14:36:57;32.50;99.90
44229;DHT22;29904;51.058;5.378;2023-09-08T14:39:23;32.60;99.90
44229;DHT22;29904;51.058;5.378;2023-09-08T14:41:49;32.60;99.90
44229;DHT22;29904;51.058;5.378;2023-09-08T14:44:19;32.60;99.90
44229;DHT22;29904;51.058;5.378;2023-09-08T14:46:46;32.60;99.90
44229;DHT22;29904;51.058;5.378;2023-09-08T14:49:14;32.60;99.90
44229;DHT22;29904;51.058;5.378;2023-09-08T14:51:40;32.60;99.90
44229;DHT22;29904;51.058;5.378;2023-09-08T14:54:06;32.60;99.90
44229;DHT22;29904;51.058;5.378;2023-09-08T14:56:32;32.60;99.90
44229;DHT22;29904;51.058;5.378;2023-09-08T14:58:57;32.60;99.90
44229;DHT22;29904;51.058;5.378;2023-09-08T15:01:25;32.50;99.90
44229;DHT22;29904;51.058;5.378;2023-09-08T15:03:53;32.50;99.90
44229;DHT22;29904;51.058;5.378;2023-09-08T15:06:20;32.40;99.90
44229;DHT22;29904;51.058;5.378;2023-09-08T15:08:46;32.40;99.90
44229;DHT22;29904;51.058;5.378;2023-09-08T15:11:12;32.30;99.90
44229;DHT22;29904;51.058;5.378;2023-09-08T15:13:38;32.30;99.90
44229;DHT22;29904;51.058;5.378;2023-09-08T15:16:03;32.30;99.90
44229;DHT22;29904;51.058;5.378;2023-09-08T15:18:31;32.30;99.90
44229;DHT22;29904;51.058;5.378;2023-09-08T15:20:57;32.30;99.90
44229;DHT22;29904;51.058;5.378;2023-09-08T15:23:23;32.30;99.90
44229;DHT22;29904;51.058;5.378;2023-09-08T15:25:54;32.20;99.90
44229;DHT22;29904;51.058;5.378;2023-09-08T15:28:19;32.10;99.90
44229;DHT22;29904;51.058;5.378;2023-09-08T15:30:53;32.00;99.90
44229;DHT22;29904;51.058;5.378;2023-09-08T15:33:19;32.00;99.90
44229;DHT22;29904;51.058;5.378;2023-09-08T15:35:46;31.90;99.90